createdAt,value
2022-09-27T00:00:06.270Z,99390.22
2022-09-27T00:02:32.922Z,99390.22
2022-09-27T00:04:59.555Z,99385.44
2022-09-27T00:07:26.204Z,99378.41
2022-09-27T00:09:52.864Z,99366.59
2022-09-27T00:12:19.555Z,99367.59
2022-09-27T00:14:46.176Z,99364.50
2022-09-27T00:17:12.782Z,99360.56
2022-09-27T00:19:39.447Z,99357.69
2022-09-27T00:22:06.280Z,99359.16
2022-09-27T00:24:33.030Z,99361.22
2022-09-27T00:26:59.911Z,99351.25
2022-09-27T00:29:26.662Z,99355.59
2022-09-27T00:31:53.320Z,99351.03
2022-09-27T00:34:22.667Z,99351.69
2022-09-27T00:36:50.424Z,99350.44
2022-09-27T00:39:17.770Z,99337.34
2022-09-27T00:41:45.343Z,99349.56
2022-09-27T00:44:27.037Z,99328.66
2022-09-27T00:47:02.291Z,99331.53
2022-09-27T00:49:34.798Z,99325.31
2022-09-27T00:52:05.640Z,99329.03
2022-09-27T00:54:34.827Z,99317.88
2022-09-27T00:57:03.072Z,99320.41
2022-09-27T00:59:37.943Z,99308.16
2022-09-27T01:02:06.389Z,99308.81
2022-09-27T01:04:34.711Z,99297.31
2022-09-27T01:07:01.313Z,99296.63
2022-09-27T01:09:29.133Z,99300.53
2022-09-27T01:12:07.668Z,99292.47
2022-09-27T01:15:04.297Z,99292.16
2022-09-27T01:17:42.713Z,99298.63
2022-09-27T01:20:15.663Z,99290.34
2022-09-27T01:22:51.553Z,99288.47
2022-09-27T01:25:55.133Z,99285.59
2022-09-27T01:28:40.471Z,99284.13
2022-09-27T01:31:54.702Z,99275.16
2022-09-27T01:34:42.380Z,99280.72
2022-09-27T01:37:17.885Z,99269.78
2022-09-27T01:40:10.371Z,99268.94
2022-09-27T01:42:59.364Z,99270.22
2022-09-27T01:45:44.280Z,99256.06
2022-09-27T01:48:17.794Z,99249.03
2022-09-27T01:50:51.805Z,99244.38
2022-09-27T01:53:23.799Z,99242.47
2022-09-27T01:55:52.956Z,99238.34
2022-09-27T01:58:43.749Z,99228.66
2022-09-27T02:01:13.247Z,99233.25
2022-09-27T02:03:47.849Z,99224.41
2022-09-27T02:06:20.985Z,99206.75
2022-09-27T02:08:55.448Z,99209.50
2022-09-27T02:11:22.746Z,99211.97
2022-09-27T02:14:23.634Z,99217.06
2022-09-27T02:17:18.880Z,99204.13
2022-09-27T02:20:01.181Z,99196.06
2022-09-27T02:22:42.339Z,99198.75
2022-09-27T02:25:26.516Z,99194.03
2022-09-27T02:28:00.713Z,99192.75
2022-09-27T02:30:27.721Z,99192.69
2022-09-27T02:32:54.673Z,99180.31
2022-09-27T02:35:27.333Z,99184.09
2022-09-27T02:37:55.277Z,99182.75
2022-09-27T02:40:23.329Z,99182.31
2022-09-27T02:42:50.770Z,99174.25
2022-09-27T02:45:19.770Z,99176.53
2022-09-27T02:47:57.597Z,99170.59
2022-09-27T02:50:39.584Z,99166.22
2022-09-27T02:53:33.441Z,99167.25
2022-09-27T02:56:03.105Z,99173.41
2022-09-27T02:58:45.462Z,99162.75
2022-09-27T03:01:30.298Z,99166.22
2022-09-27T03:04:10.666Z,99163.44
2022-09-27T03:06:42.143Z,99155.88
2022-09-27T03:09:22.921Z,99156.94
2022-09-27T03:11:49.753Z,99153.81
2022-09-27T03:14:17.193Z,99152.16
2022-09-27T03:16:43.808Z,99150.31
2022-09-27T03:19:10.683Z,99139.97
2022-09-27T03:21:37.566Z,99136.25
2022-09-27T03:24:04.297Z,99128.78
2022-09-27T03:26:31.006Z,99137.28
2022-09-27T03:28:57.693Z,99123.81
2022-09-27T03:31:24.447Z,99126.69
2022-09-27T03:33:51.164Z,99125.00
2022-09-27T03:36:17.732Z,99126.66
2022-09-27T03:38:44.317Z,99128.28
2022-09-27T03:41:10.991Z,99123.75
2022-09-27T03:43:37.615Z,99129.56
2022-09-27T03:46:04.641Z,99125.03
2022-09-27T03:48:31.394Z,99119.81
2022-09-27T03:50:58.106Z,99127.06
2022-09-27T03:53:25.220Z,99119.03
2022-09-27T03:55:51.818Z,99121.13
2022-09-27T03:58:18.539Z,99121.78
2022-09-27T04:00:46.429Z,99111.84
2022-09-27T04:03:13.616Z,99107.06
2022-09-27T04:05:40.412Z,99111.25
2022-09-27T04:08:07.905Z,99109.31
2022-09-27T04:10:34.774Z,99101.03
2022-09-27T04:13:01.579Z,99111.34
2022-09-27T04:15:28.260Z,99103.88
2022-09-27T04:17:54.978Z,99094.38
2022-09-27T04:20:21.834Z,99100.03
2022-09-27T04:22:48.444Z,99091.75
2022-09-27T04:25:15.193Z,99092.78
2022-09-27T04:27:45.975Z,99093.78
2022-09-27T04:30:13.516Z,99102.28
2022-09-27T04:32:44.501Z,99090.72
2022-09-27T04:35:30.801Z,99092.78
2022-09-27T04:37:57.784Z,99091.53
2022-09-27T04:40:24.879Z,99092.41
2022-09-27T04:42:52.644Z,99088.25
2022-09-27T04:45:20.264Z,99095.47
2022-09-27T04:47:48.377Z,99093.63
2022-09-27T04:50:15.746Z,99091.53
2022-09-27T04:52:42.346Z,99093.63
2022-09-27T04:55:10.591Z,99093.41
2022-09-27T04:57:37.522Z,99093.22
2022-09-27T05:00:05.276Z,99094.44
2022-09-27T05:02:31.997Z,99091.16
2022-09-27T05:05:00.007Z,99095.75
2022-09-27T05:07:27.564Z,99080.81
2022-09-27T05:09:54.617Z,99084.94
2022-09-27T05:12:21.775Z,99085.00
2022-09-27T05:14:48.420Z,99086.25
2022-09-27T05:17:15.068Z,99082.91
2022-09-27T05:19:41.765Z,99081.44
2022-09-27T05:22:08.980Z,99086.03
2022-09-27T05:24:37.099Z,99090.59
2022-09-27T05:27:05.098Z,99087.88
2022-09-27T05:29:31.701Z,99091.81
2022-09-27T05:31:58.294Z,99091.81
2022-09-27T05:34:24.930Z,99090.31
2022-09-27T05:36:51.512Z,99099.22
2022-09-27T05:39:18.934Z,99096.31
2022-09-27T05:41:46.574Z,99095.69
2022-09-27T05:44:13.429Z,99094.06
2022-09-27T05:46:40.088Z,99105.03
2022-09-27T05:49:06.742Z,99096.38
2022-09-27T05:51:33.424Z,99097.81
2022-09-27T05:54:00.156Z,99101.69
2022-09-27T05:56:26.884Z,99099.50
2022-09-27T05:58:53.702Z,99096.25
2022-09-27T06:01:20.524Z,99108.97
2022-09-27T06:03:47.777Z,99103.56
2022-09-27T06:06:15.554Z,99097.59
2022-09-27T06:08:42.356Z,99101.00
2022-09-27T06:11:12.527Z,99097.94
2022-09-27T06:13:39.738Z,99097.94
2022-09-27T06:16:08.263Z,99095.69
2022-09-27T06:18:34.886Z,99092.56
2022-09-27T06:21:03.829Z,99098.31
2022-09-27T06:23:32.800Z,99097.47
2022-09-27T06:26:07.941Z,99090.66
2022-09-27T06:28:35.668Z,99093.38
2022-09-27T06:31:04.997Z,99091.88
2022-09-27T06:33:33.080Z,99085.06
2022-09-27T06:36:07.504Z,99090.81
2022-09-27T06:38:34.598Z,99092.53
2022-09-27T06:41:03.256Z,99090.91
2022-09-27T06:43:31.270Z,99095.25
2022-09-27T06:46:05.434Z,99098.16
2022-09-27T06:48:33.796Z,99105.06
2022-09-27T06:51:00.467Z,99091.41
2022-09-27T06:53:29.205Z,99091.19
2022-09-27T06:56:02.153Z,99099.81
2022-09-27T06:58:47.927Z,99099.06
2022-09-27T07:01:14.900Z,99100.47
2022-09-27T07:03:44.547Z,99103.78
2022-09-27T07:06:22.912Z,99100.53
2022-09-27T07:08:52.034Z,99096.03
2022-09-27T07:11:19.082Z,99085.66
2022-09-27T07:13:45.804Z,99095.00
2022-09-27T07:16:14.491Z,99098.53
2022-09-27T07:18:42.347Z,99093.38
2022-09-27T07:21:09.212Z,99093.97
2022-09-27T07:23:37.101Z,99097.69
2022-09-27T07:26:05.147Z,99096.84
2022-09-27T07:28:32.020Z,99096.06
2022-09-27T07:30:59.050Z,99097.81
2022-09-27T07:33:26.029Z,99103.03
2022-09-27T07:35:52.662Z,99096.00
2022-09-27T07:38:20.002Z,99099.09
2022-09-27T07:40:47.115Z,99092.81
2022-09-27T07:43:13.879Z,99093.03
2022-09-27T07:45:41.062Z,99096.13
2022-09-27T07:48:10.612Z,99101.34
2022-09-27T07:50:38.300Z,99095.59
2022-09-27T07:53:05.619Z,99098.69
2022-09-27T07:55:32.440Z,99098.22
2022-09-27T07:58:11.130Z,99094.53
2022-09-27T08:00:40.893Z,99092.63
2022-09-27T08:03:12.163Z,99092.59
2022-09-27T08:05:38.874Z,99092.84
2022-09-27T08:08:05.534Z,99094.94
2022-09-27T08:10:33.935Z,99095.59
2022-09-27T08:13:04.881Z,99095.38
2022-09-27T08:15:32.721Z,99090.66
2022-09-27T08:17:59.496Z,99095.59
2022-09-27T08:20:26.161Z,99094.34
2022-09-27T08:22:53.013Z,99093.91
2022-09-27T08:25:24.338Z,99098.66
2022-09-27T08:27:58.868Z,99111.25
2022-09-27T08:30:26.978Z,99114.81
2022-09-27T08:32:57.836Z,99112.56
2022-09-27T08:35:24.570Z,99109.88
2022-09-27T08:37:55.899Z,99115.06
2022-09-27T08:40:27.594Z,99108.03
2022-09-27T08:42:56.846Z,99108.03
2022-09-27T08:45:31.768Z,99115.94
2022-09-27T08:48:01.707Z,99114.25
2022-09-27T08:50:36.095Z,99104.00
2022-09-27T08:53:14.451Z,99103.13
2022-09-27T08:55:48.250Z,99107.63
2022-09-27T08:58:35.760Z,99106.84
2022-09-27T09:01:06.417Z,99104.16
2022-09-27T09:03:38.206Z,99107.28
2022-09-27T09:06:23.609Z,99097.56
2022-09-27T09:09:09.875Z,99101.88
2022-09-27T09:12:20.993Z,99101.69
2022-09-27T09:15:04.070Z,99104.38
2022-09-27T09:18:01.555Z,99104.16
2022-09-27T09:20:40.476Z,99104.22
2022-09-27T09:23:40.638Z,99107.72
2022-09-27T09:26:35.101Z,99109.56
2022-09-27T09:29:34.583Z,99107.06
2022-09-27T09:32:28.973Z,99110.19
2022-09-27T09:35:20.271Z,99115.97
2022-09-27T09:37:54.578Z,99102.50
2022-09-27T09:40:23.972Z,99105.22
2022-09-27T09:43:01.361Z,99105.03
2022-09-27T09:45:33.265Z,99111.47
2022-09-27T09:48:16.956Z,99106.25
2022-09-27T09:50:47.596Z,99097.34
2022-09-27T09:53:19.398Z,99093.44
2022-09-27T09:56:03.643Z,99103.06
2022-09-27T09:58:30.213Z,99089.75
2022-09-27T10:01:09.387Z,99091.69
2022-09-27T10:03:36.017Z,99099.38
2022-09-27T10:06:02.700Z,99095.66
2022-09-27T10:08:29.347Z,99097.75
2022-09-27T10:10:56.012Z,99095.22
2022-09-27T10:13:22.911Z,99082.16
2022-09-27T10:16:03.596Z,99085.66
2022-09-27T10:18:30.657Z,99089.63
2022-09-27T10:21:01.354Z,99083.41
2022-09-27T10:23:28.736Z,99079.91
2022-09-27T10:26:00.594Z,99082.19
2022-09-27T10:28:37.452Z,99075.19
2022-09-27T10:31:17.686Z,99078.00
2022-09-27T10:34:05.308Z,99084.63
2022-09-27T10:36:35.163Z,99078.75
2022-09-27T10:39:05.465Z,99083.50
2022-09-27T10:41:35.520Z,99072.44
2022-09-27T10:44:17.998Z,99076.94
2022-09-27T10:46:49.613Z,99065.47
2022-09-27T10:49:29.725Z,99063.38
2022-09-27T10:52:02.194Z,99066.69
2022-09-27T10:54:32.669Z,99062.78
2022-09-27T10:57:20.867Z,99058.78
2022-09-27T11:00:00.762Z,99058.41
2022-09-27T11:02:36.378Z,99067.59
2022-09-27T11:05:15.639Z,99058.47
2022-09-27T11:07:53.980Z,99057.41
2022-09-27T11:10:36.970Z,99063.94
2022-09-27T11:13:20.296Z,99057.66
2022-09-27T11:16:02.170Z,99059.69
2022-09-27T11:18:28.762Z,99053.53
2022-09-27T11:21:18.090Z,99055.28
2022-09-27T11:24:04.147Z,99056.81
2022-09-27T11:27:04.376Z,99060.44
2022-09-27T11:29:54.662Z,99047.66
2022-09-27T11:32:27.153Z,99049.34
2022-09-27T11:35:34.089Z,99042.91
2022-09-27T11:38:08.294Z,99041.59
2022-09-27T11:41:11.774Z,99044.03
2022-09-27T11:44:08.505Z,99044.28
2022-09-27T11:46:42.168Z,99044.66
2022-09-27T11:49:28.237Z,99041.22
2022-09-27T11:52:30.046Z,99035.56
2022-09-27T11:55:35.091Z,99035.81
2022-09-27T11:58:23.302Z,99042.84
2022-09-27T12:00:50.583Z,99041.50
2022-09-27T12:03:37.977Z,99050.94
2022-09-27T12:06:35.432Z,99067.56
2022-09-27T12:09:11.733Z,99072.19
2022-09-27T12:11:47.355Z,99077.84
2022-09-27T12:14:37.926Z,99096.09
2022-09-27T12:17:14.600Z,99106.69
2022-09-27T12:19:49.266Z,99099.22
2022-09-27T12:22:40.332Z,99104.44
2022-09-27T12:25:20.548Z,99109.59
2022-09-27T12:27:52.336Z,99110.63
2022-09-27T12:30:19.319Z,99109.81
2022-09-27T12:33:17.294Z,99110.03
2022-09-27T12:35:50.500Z,99110.91
2022-09-27T12:38:40.431Z,99111.50
2022-09-27T12:41:12.220Z,99119.53
2022-09-27T12:43:44.764Z,99127.00
2022-09-27T12:46:40.181Z,99122.44
2022-09-27T12:49:34.073Z,99124.53
2022-09-27T12:52:08.130Z,99118.75
2022-09-27T12:55:02.808Z,99120.56
2022-09-27T12:57:47.637Z,99128.78
2022-09-27T13:00:25.213Z,99127.72
2022-09-27T13:03:26.525Z,99130.81
2022-09-27T13:06:05.038Z,99127.88
2022-09-27T13:09:09.177Z,99128.09
2022-09-27T13:11:51.223Z,99129.59
2022-09-27T13:14:23.051Z,99133.13
2022-09-27T13:16:51.416Z,99133.28
2022-09-27T13:19:36.050Z,99133.94
2022-09-27T13:22:04.933Z,99135.47
2022-09-27T13:24:40.599Z,99129.56
2022-09-27T13:27:22.425Z,99137.88
2022-09-27T13:29:50.536Z,99135.25
2022-09-27T13:32:22.896Z,99143.84
2022-09-27T13:34:55.110Z,99142.34
2022-09-27T13:37:48.119Z,99142.59
2022-09-27T13:40:27.319Z,99142.38
2022-09-27T13:43:10.812Z,99140.97
2022-09-27T13:46:00.006Z,99140.22
2022-09-27T13:48:28.521Z,99141.88
2022-09-27T13:51:03.073Z,99140.84
2022-09-27T13:53:39.392Z,99144.34
2022-09-27T13:56:06.621Z,99147.75
2022-09-27T13:58:51.532Z,99153.47
2022-09-27T14:01:30.601Z,99146.38
2022-09-27T14:04:04.937Z,99153.53
2022-09-27T14:06:41.782Z,99159.34
2022-09-27T14:09:20.003Z,99161.16
2022-09-27T14:11:52.570Z,99157.81
2022-09-27T14:14:23.444Z,99161.63
2022-09-27T14:16:50.666Z,99165.03
2022-09-27T14:19:22.783Z,99171.72
2022-09-27T14:22:27.932Z,99183.09
2022-09-27T14:24:56.108Z,99182.50
2022-09-27T14:27:34.864Z,99186.94
2022-09-27T14:30:13.173Z,99190.50
2022-09-27T14:33:01.567Z,99192.38
2022-09-27T14:35:48.536Z,99203.63
2022-09-27T14:38:37.178Z,99199.50
2022-09-27T14:41:10.772Z,99197.84
2022-09-27T14:43:44.389Z,99202.84
2022-09-27T14:46:32.032Z,99203.63
2022-09-27T14:48:59.696Z,99210.84
2022-09-27T14:51:31.478Z,99204.84
2022-09-27T14:54:01.387Z,99204.75
2022-09-27T14:56:34.316Z,99207.66
2022-09-27T14:59:32.261Z,99211.16
2022-09-27T15:02:02.147Z,99216.94
2022-09-27T15:04:32.180Z,99215.88
2022-09-27T15:07:01.898Z,99214.88
2022-09-27T15:09:32.944Z,99220.47
2022-09-27T15:12:01.387Z,99221.31
2022-09-27T15:14:29.674Z,99222.31
2022-09-27T15:17:00.771Z,99218.81
2022-09-27T15:19:30.227Z,99212.78
2022-09-27T15:21:59.760Z,99223.13
2022-09-27T15:24:46.596Z,99233.28
2022-09-27T15:27:21.590Z,99225.84
2022-09-27T15:29:51.476Z,99227.94
2022-09-27T15:32:21.811Z,99223.59
2022-09-27T15:34:48.399Z,99232.69
2022-09-27T15:37:38.050Z,99230.81
2022-09-27T15:40:17.572Z,99222.94
2022-09-27T15:42:58.693Z,99233.72
2022-09-27T15:45:36.095Z,99225.00
2022-09-27T15:48:16.075Z,99233.50
2022-09-27T15:50:43.336Z,99232.91
2022-09-27T15:53:10.575Z,99238.66
2022-09-27T15:55:43.447Z,99230.19
2022-09-27T15:58:16.763Z,99233.72
2022-09-27T16:00:54.514Z,99244.28
2022-09-27T16:03:21.325Z,99241.41
2022-09-27T16:05:47.948Z,99246.53
2022-09-27T16:08:14.897Z,99253.59
2022-09-27T16:10:49.098Z,99255.59
2022-09-27T16:13:15.680Z,99258.66
2022-09-27T16:15:42.683Z,99254.28
2022-09-27T16:18:10.650Z,99261.16
2022-09-27T16:20:37.354Z,99256.44
2022-09-27T16:23:04.018Z,99255.63
2022-09-27T16:25:30.643Z,99254.94
2022-09-27T16:28:01.745Z,99260.34
2022-09-27T16:30:29.865Z,99263.63
2022-09-27T16:32:56.522Z,99263.84
2022-09-27T16:35:26.207Z,99258.41
2022-09-27T16:37:52.770Z,99266.28
2022-09-27T16:40:19.571Z,99272.94
2022-09-27T16:42:49.776Z,99272.56
2022-09-27T16:45:19.898Z,99271.72
2022-09-27T16:47:47.330Z,99274.47
2022-09-27T16:50:33.635Z,99278.00
2022-09-27T16:53:00.470Z,99287.16
2022-09-27T16:55:28.767Z,99279.34
2022-09-27T16:57:58.776Z,99287.25
2022-09-27T17:00:25.571Z,99290.56
2022-09-27T17:02:53.053Z,99292.03
2022-09-27T17:05:20.298Z,99294.53
2022-09-27T17:07:51.303Z,99297.25
2022-09-27T17:10:19.321Z,99295.59
2022-09-27T17:12:47.341Z,99297.00
2022-09-27T17:15:14.821Z,99298.03
2022-09-27T17:17:41.526Z,99293.28
2022-09-27T17:20:08.200Z,99295.56
2022-09-27T17:22:34.740Z,99295.56
2022-09-27T17:25:01.432Z,99296.81
2022-09-27T17:27:28.700Z,99290.41
2022-09-27T17:29:55.804Z,99301.81
2022-09-27T17:32:23.195Z,99304.75
2022-09-27T17:34:52.869Z,99301.66
2022-09-27T17:37:19.683Z,99307.44
2022-09-27T17:39:46.682Z,99308.03
2022-09-27T17:42:13.428Z,99314.66
2022-09-27T17:44:40.340Z,99319.00
2022-09-27T17:47:25.516Z,99321.50
2022-09-27T17:50:10.891Z,99320.69
2022-09-27T17:52:37.492Z,99316.13
2022-09-27T17:55:04.461Z,99326.50
2022-09-27T17:57:31.864Z,99321.09
2022-09-27T17:59:58.448Z,99325.22
2022-09-27T18:02:26.196Z,99325.03
2022-09-27T18:04:52.984Z,99328.53
2022-09-27T18:07:20.028Z,99316.34
2022-09-27T18:09:46.892Z,99327.50
2022-09-27T18:12:13.856Z,99334.53
2022-09-27T18:14:40.716Z,99357.69
2022-09-27T18:17:07.531Z,99356.03
2022-09-27T18:19:34.119Z,99364.31
2022-09-27T18:22:00.880Z,99366.81
2022-09-27T18:24:27.565Z,99356.06
2022-09-27T18:26:55.847Z,99354.19
2022-09-27T18:29:22.858Z,99348.56
2022-09-27T18:31:49.625Z,99357.28
2022-09-27T18:34:18.455Z,99361.81
2022-09-27T18:36:45.579Z,99360.81
2022-09-27T18:39:15.860Z,99366.38
2022-09-27T18:41:42.674Z,99358.72
2022-09-27T18:44:12.622Z,99363.47
2022-09-27T18:46:39.461Z,99357.25
2022-09-27T18:49:07.985Z,99357.69
2022-09-27T18:51:37.416Z,99349.41
2022-09-27T18:54:08.171Z,99348.38
2022-09-27T18:56:44.141Z,99352.94
2022-09-27T18:59:11.325Z,99353.75
2022-09-27T19:01:41.695Z,99353.53
2022-09-27T19:04:09.450Z,99344.44
2022-09-27T19:06:36.964Z,99340.94
2022-09-27T19:09:04.736Z,99341.97
2022-09-27T19:11:32.100Z,99345.06
2022-09-27T19:13:59.039Z,99355.19
2022-09-27T19:16:27.454Z,99353.94
2022-09-27T19:18:54.636Z,99352.72
2022-09-27T19:21:24.447Z,99354.78
2022-09-27T19:23:51.888Z,99354.56
2022-09-27T19:26:23.818Z,99357.06
2022-09-27T19:28:51.598Z,99361.19
2022-09-27T19:31:20.684Z,99363.25
2022-09-27T19:33:47.599Z,99365.09
2022-09-27T19:36:16.209Z,99360.56
2022-09-27T19:38:43.566Z,99372.53
2022-09-27T19:41:12.338Z,99370.31
2022-09-27T19:43:39.240Z,99367.63
2022-09-27T19:46:08.202Z,99375.22
2022-09-27T19:48:38.666Z,99373.78
2022-09-27T19:51:06.742Z,99381.81
2022-09-27T19:53:35.599Z,99374.63
2022-09-27T19:56:05.033Z,99374.19
2022-09-27T19:58:33.180Z,99376.66
2022-09-27T20:01:08.512Z,99378.72
2022-09-27T20:03:37.221Z,99380.38
2022-09-27T20:06:05.426Z,99367.75
2022-09-27T20:08:32.216Z,99370.66
2022-09-27T20:11:05.845Z,99368.59
2022-09-27T20:13:34.236Z,99373.13
2022-09-27T20:16:06.596Z,99365.28
2022-09-27T20:18:33.672Z,99364.44
2022-09-27T20:21:02.183Z,99359.25
2022-09-27T20:23:33.867Z,99365.00
2022-09-27T20:26:08.337Z,99365.19
2022-09-27T20:28:36.260Z,99359.16
2022-09-27T20:31:05.113Z,99360.03
2022-09-27T20:33:41.039Z,99365.81
2022-09-27T20:36:09.533Z,99362.47
2022-09-27T20:38:36.189Z,99366.22
2022-09-27T20:41:02.950Z,99366.66
2022-09-27T20:43:31.127Z,99372.22
2022-09-27T20:46:05.871Z,99374.09
2022-09-27T20:48:33.098Z,99380.47
2022-09-27T20:51:04.398Z,99376.78
2022-09-27T20:53:31.382Z,99384.19
2022-09-27T20:55:59.483Z,99377.34
2022-09-27T20:58:26.441Z,99377.97
2022-09-27T21:00:53.208Z,99371.78
2022-09-27T21:03:21.866Z,99378.59
2022-09-27T21:05:58.392Z,99372.78
2022-09-27T21:08:25.409Z,99373.63
2022-09-27T21:10:53.861Z,99372.38
2022-09-27T21:13:21.191Z,99375.28
2022-09-27T21:15:48.498Z,99381.06
2022-09-27T21:18:15.201Z,99383.72
2022-09-27T21:20:41.837Z,99381.03
2022-09-27T21:23:08.417Z,99374.41
2022-09-27T21:25:35.002Z,99376.69
2022-09-27T21:28:04.320Z,99380.44
2022-09-27T21:30:31.097Z,99386.84
2022-09-27T21:32:57.854Z,99385.97
2022-09-27T21:35:24.545Z,99384.13
2022-09-27T21:37:51.349Z,99380.59
2022-09-27T21:40:18.019Z,99392.59
2022-09-27T21:42:44.637Z,99399.00
2022-09-27T21:45:11.557Z,99399.19
2022-09-27T21:47:38.123Z,99400.03
2022-09-27T21:50:05.004Z,99404.78
2022-09-27T21:52:31.581Z,99406.63
2022-09-27T21:54:58.148Z,99408.09
2022-09-27T21:57:24.710Z,99408.28
2022-09-27T21:59:51.374Z,99412.44
2022-09-27T22:02:20.719Z,99407.47
2022-09-27T22:04:49.347Z,99396.72
2022-09-27T22:07:16.091Z,99400.41
2022-09-27T22:09:42.666Z,99403.94
2022-09-27T22:12:09.664Z,99402.09
2022-09-27T22:14:36.279Z,99406.19
2022-09-27T22:17:02.969Z,99407.84
2022-09-27T22:19:29.548Z,99411.16
2022-09-27T22:21:56.124Z,99406.19
2022-09-27T22:24:22.938Z,99407.84
2022-09-27T22:26:51.872Z,99409.91
2022-09-27T22:29:19.216Z,99403.06
2022-09-27T22:31:46.042Z,99402.66
2022-09-27T22:34:18.633Z,99398.94
2022-09-27T22:36:45.617Z,99398.53
2022-09-27T22:39:12.609Z,99396.47
2022-09-27T22:41:39.275Z,99398.03
2022-09-27T22:44:05.919Z,99399.06
2022-09-27T22:46:32.556Z,99405.69
2022-09-27T22:48:59.175Z,99399.44
2022-09-27T22:51:25.785Z,99404.59
2022-09-27T22:53:52.412Z,99404.41
2022-09-27T22:56:20.659Z,99407.53
2022-09-27T22:58:48.489Z,99405.28
2022-09-27T23:01:18.533Z,99395.72
2022-09-27T23:03:46.444Z,99403.63
2022-09-27T23:06:14.588Z,99404.44
2022-09-27T23:08:41.504Z,99402.78
2022-09-27T23:11:12.353Z,99409.63
2022-09-27T23:13:41.353Z,99399.91
2022-09-27T23:16:10.750Z,99399.91
2022-09-27T23:18:38.190Z,99397.63
2022-09-27T23:21:07.095Z,99398.44
2022-09-27T23:23:35.564Z,99391.41
2022-09-27T23:26:05.178Z,99400.50
2022-09-27T23:28:33.109Z,99392.00
2022-09-27T23:31:11.579Z,99400.31
2022-09-27T23:33:40.467Z,99393.91
2022-09-27T23:36:15.163Z,99395.13
2022-09-27T23:38:43.450Z,99398.03
2022-09-27T23:41:10.023Z,99392.81
2022-09-27T23:43:36.811Z,99395.34
2022-09-27T23:46:04.974Z,99393.47
2022-09-27T23:48:31.720Z,99390.97
2022-09-27T23:50:58.278Z,99391.78
2022-09-27T23:53:24.872Z,99396.16
2022-09-27T23:56:07.378Z,99384.75
2022-09-27T23:58:35.394Z,99393.22
